Vårt webkamera more information My webcam


webkamera på Randaberg more information webcam on Randaberg


varsel for Snø/Is  rain snow radar


Besøk vår andre værside:

Alternativ webside

Alternativ mobil

Regnskvett RandabergWebsite of another weatherstation



Snø/Is Fra: 23-01-2020 01:00 til: 25-01-2020 00:00 varsel for: Snø/Is Level: Gul info button

Nære METAR rapporter

   
ENHD - Haugesund
oppdatert: 23-01-2020 09:50
Tåke, Overskyet  
Tåke, Overskyet  
   Vind: SØ 4.1 m/s
Vind: SØ 4.1 m/s
Temperatur: 6°C
Wind Chill: 3°C
Duggpunkt: 5°C
Fuktighet: 93%
Barometer: 1023 hPa
Skyer: Overskyet
Sikt: 1 km
Skydetaljer: Overskyet 30.5 m
ENHD 230850Z 13008KT 0800 R13/1400N R31/1500N FG OVC001 06/05 Q1023
ENZV - Randaberg
oppdatert: 23-01-2020 09:50
Lett yr, Overskyet  
Lett yr, Overskyet  
   Vind: SV 4.6 m/s
Vind: SV 4.6 m/s
Temperatur: 8°C
Wind Chill: 5°C
Duggpunkt: 8°C
Fuktighet: 100%
Barometer: 1024 hPa
Skyer: Overskyet
Sikt: 6 km
Skydetaljer: Overskyet 91.4 m
ENZV 230850Z 22009KT 6000 -DZ OVC003 08/08 Q1024 TEMPO 4000 DZ BR
ENBR - Bergen
oppdatert: 23-01-2020 09:50
For det meste skyet  
For det meste skyet  
   Vind: SSV 5.7 m/s
Vind: SSV 5.7 m/s
Temperatur: 8°C
Wind Chill: 5°C
Duggpunkt: 7°C
Fuktighet: 93%
Barometer: 1021 hPa
Skyer: For det meste skyet
Sikt: More than 10 km
Skydetaljer: få skyer 152.4 m,
Delvis Skyet 243.8 m,
For det meste skyet 365.8 m
ENBR 230850Z 21011KT 9999 FEW005 SCT008 BKN012 08/07 Q1021 TEMPO 4000 DZRA BR OVC004 RMK WIND 1200FT 23018G30KT
ENCN - Kristiansand
oppdatert: 23-01-2020 09:50
Delvis Skyet  
Delvis Skyet  
   Vind: Sør 5.1 m/s
Vind: Sør 5.1 m/s
Temperatur: 5°C
Wind Chill: 1°C
Duggpunkt: 5°C
Fuktighet: 100%
Barometer: 1023 hPa
Skyer: Delvis Skyet
Sikt: More than 10 km
Skydetaljer: få skyer 274.3 m,
Delvis Skyet 426.7 m
ENCN 230850Z 19010KT 9999 FEW009 SCT014 05/05 Q1023
ENGM - Oslo
oppdatert: 23-01-2020 09:50
Klart  
Klart  
   Vind: SSV 4.1 m/s
Vind: SSV 4.1 m/s
Temperatur: 0°C
Wind Chill: -4°C
Duggpunkt: -4°C
Fuktighet: 75%
Barometer: 1016 hPa
Sikt: More than 10 km
Skydetaljer: Klart
ENGM 230850Z 20008KT CAVOK 00/M04 Q1016 NOSIG
ENVA - Trondheim
oppdatert: 23-01-2020 09:50
Lett yr, For det meste skyet  
Lett yr, For det meste skyet  
   Vind: varierer 1 m/s
Vind: varierer 1 m/s
Temperatur: 6°C
Duggpunkt: 2°C
Fuktighet: 76%
Barometer: 1008 hPa
Skyer: For det meste skyet
Sikt: More than 10 km
Skydetaljer: få skyer 1036.3 m,
For det meste skyet 1310.6 m
ENVA 230850Z VRB02KT 9999 -DZ FEW034 BKN043 06/02 Q1008 NOSIG RMK WIND 670FT 26013KT

Script utviklet av  Saratoga-weather.org Tilrettelagt for malen av  Weerstation Leuven

Du finner vår vær info også på:

European Weather Network

WeatherCloud

Weather Underground

Citizen Weather Observer Program (CWOP)

Utstyr vi bruker:

Værstsjon
Oregon scientific WMR 300

Værprogram
Meteobridge

Oregon scientific WMR 300

Meteobridge